Time;durP1;ratioP1;P1;durP2;ratioP2;P2;SDS_P1;SDS_P2;PMS_P1;PMS_P2;Temp;Humidity;BMP_temperature;BMP_pressure;BME280_temperature;BME280_humidity;BME280_pressure;Samples;Min_cycle;Max_cycle;Signal;HPM_P1;HPM_P2
2022/04/23 00:00:40;;;;;;;19.17;14.03;;;;;;;;;;5016614;28;20211;-65
2022/04/23 00:03:07;;;;;;;16.40;13.73;;;;;;;;;;5016109;28;20215;-64
2022/04/23 00:05:35;;;;;;;15.33;13.73;;;;;;;;;;5006931;28;20297;-64
2022/04/23 00:08:03;;;;;;;15.77;14.03;;;;;;;;;;5006760;28;20202;-64
2022/04/23 00:10:30;;;;;;;17.47;15.53;;;;;;;;;;5007932;28;20206;-64
2022/04/23 00:12:59;;;;;;;15.87;14.17;;;;;;;;;;4997839;28;20272;-64
2022/04/23 00:15:27;;;;;;;18.77;15.00;;;;;;;;;;5001978;28;20771;-64
2022/04/23 00:18:01;;;;;;;18.10;14.17;;;;;;;;;;5005948;28;20246;-65
2022/04/23 00:20:30;;;;;;;17.90;15.40;;;;;;;;;;5007812;28;20579;-64
2022/04/23 00:22:57;;;;;;;19.23;14.63;;;;;;;;;;5017883;28;20238;-65
2022/04/23 00:25:25;;;;;;;17.73;15.60;;;;;;;;;;5011416;28;20224;-64
2022/04/23 00:27:52;;;;;;;17.60;15.30;;;;;;;;;;4991506;28;20207;-65
2022/04/23 00:30:20;;;;;;;18.60;15.97;;;;;;;;;;4998228;28;20210;-64
2022/04/23 00:32:48;;;;;;;20.50;14.77;;;;;;;;;;5006044;28;20215;-65
2022/04/23 00:35:16;;;;;;;17.77;15.87;;;;;;;;;;5006920;28;20301;-65
2022/04/23 00:37:44;;;;;;;19.13;16.53;;;;;;;;;;5005090;28;20206;-64
2022/04/23 00:40:17;;;;;;;18.27;16.23;;;;;;;;;;5006475;28;20211;-65
2022/04/23 00:42:55;;;;;;;21.60;17.33;;;;;;;;;;5037572;28;20218;-65
2022/04/23 00:45:23;;;;;;;21.43;18.57;;;;;;;;;;5031436;28;20218;-64
2022/04/23 00:47:51;;;;;;;21.53;18.83;;;;;;;;;;5005193;28;20298;-64
2022/04/23 00:50:22;;;;;;;22.00;19.27;;;;;;;;;;5010977;28;20223;-64
2022/04/23 00:52:54;;;;;;;22.53;19.27;;;;;;;;;;5013901;28;20198;-64
2022/04/23 00:55:21;;;;;;;22.80;20.13;;;;;;;;;;5008182;28;20227;-65
2022/04/23 00:57:49;;;;;;;22.47;20.07;;;;;;;;;;5013288;28;20610;-65
2022/04/23 01:00:18;;;;;;;25.40;20.80;;;;;;;;;;5004732;28;20660;-65
2022/04/23 01:02:45;;;;;;;27.63;22.67;;;;;;;;;;4991681;28;20317;-65
2022/04/23 01:05:14;;;;;;;29.87;23.00;;;;;;;;;;4994323;28;20230;-64
2022/04/23 01:07:43;;;;;;;28.20;23.70;;;;;;;;;;4988897;28;20238;-64
2022/04/23 01:10:11;;;;;;;27.63;23.03;;;;;;;;;;5006466;28;23831;-65
2022/04/23 01:12:39;;;;;;;26.83;23.90;;;;;;;;;;4998725;28;21196;-65
2022/04/23 01:15:08;;;;;;;30.67;25.00;;;;;;;;;;5002995;28;20226;-63
2022/04/23 01:17:35;;;;;;;31.40;25.60;;;;;;;;;;5010481;28;20210;-64
2022/04/23 01:20:09;;;;;;;29.77;25.40;;;;;;;;;;5004758;28;20297;-64
2022/04/23 01:22:37;;;;;;;31.00;25.77;;;;;;;;;;5012937;28;20225;-63
2022/04/23 01:25:06;;;;;;;30.30;25.67;;;;;;;;;;5009271;28;20316;-65
2022/04/23 01:27:34;;;;;;;33.73;26.80;;;;;;;;;;5002047;28;20246;-64
2022/04/23 01:30:02;;;;;;;30.83;26.03;;;;;;;;;;5013160;28;21082;-63
2022/04/23 01:32:29;;;;;;;32.33;26.53;;;;;;;;;;5002460;28;20213;-62
2022/04/23 01:34:57;;;;;;;29.20;25.57;;;;;;;;;;5007091;28;20227;-64
2022/04/23 01:37:24;;;;;;;32.77;27.07;;;;;;;;;;5023351;28;22376;-64
2022/04/23 01:39:52;;;;;;;33.63;27.30;;;;;;;;;;5001522;28;20218;-64
2022/04/23 01:42:19;;;;;;;35.90;28.10;;;;;;;;;;5013295;28;20214;-64
2022/04/23 01:44:51;;;;;;;35.03;28.07;;;;;;;;;;5008003;28;20766;-64
2022/04/23 01:47:19;;;;;;;34.67;28.97;;;;;;;;;;4999626;28;20245;-64
2022/04/23 01:49:46;;;;;;;34.53;28.30;;;;;;;;;;5007237;28;20213;-64
2022/04/23 01:52:14;;;;;;;35.90;27.87;;;;;;;;;;5013211;28;20207;-64
2022/04/23 01:54:41;;;;;;;34.67;29.27;;;;;;;;;;5015991;28;20222;-64
2022/04/23 01:57:09;;;;;;;37.43;30.73;;;;;;;;;;5001977;28;20562;-64
2022/04/23 01:59:36;;;;;;;36.87;28.97;;;;;;;;;;5017701;28;20265;-65
2022/04/23 02:02:04;;;;;;;37.30;30.30;;;;;;;;;;5022373;28;20390;-65
2022/04/23 02:04:32;;;;;;;34.87;28.43;;;;;;;;;;5008344;28;20712;-63
2022/04/23 02:07:00;;;;;;;36.13;28.97;;;;;;;;;;5005200;28;20287;-64
2022/04/23 02:09:28;;;;;;;34.00;28.63;;;;;;;;;;5015005;28;20211;-64
2022/04/23 02:11:56;;;;;;;33.43;27.90;;;;;;;;;;5012973;28;20274;-64
2022/04/23 02:14:24;;;;;;;36.93;28.47;;;;;;;;;;5009343;28;20226;-64
2022/04/23 02:16:52;;;;;;;34.23;28.13;;;;;;;;;;5010762;28;20264;-65
2022/04/23 02:19:19;;;;;;;34.33;27.60;;;;;;;;;;5016423;28;20209;-65
2022/04/23 02:21:47;;;;;;;35.63;29.10;;;;;;;;;;5024190;28;20207;-65
2022/04/23 02:24:15;;;;;;;36.40;29.70;;;;;;;;;;5020191;28;20207;-65
2022/04/23 02:26:43;;;;;;;37.57;30.53;;;;;;;;;;5012519;28;20255;-65
2022/04/23 02:29:11;;;;;;;38.63;29.93;;;;;;;;;;5008380;28;20206;-65
2022/04/23 02:31:38;;;;;;;34.63;29.10;;;;;;;;;;5014096;28;20248;-66
2022/04/23 02:34:05;;;;;;;35.43;29.80;;;;;;;;;;5006192;28;20243;-64
2022/04/23 02:36:35;;;;;;;32.60;27.40;;;;;;;;;;5003750;28;20233;-66
2022/04/23 02:39:03;;;;;;;34.67;28.80;;;;;;;;;;5011789;28;20207;-65
2022/04/23 02:41:30;;;;;;;36.67;28.70;;;;;;;;;;5032264;28;20218;-64
2022/04/23 02:43:58;;;;;;;36.27;29.30;;;;;;;;;;5013638;28;20250;-63
2022/04/23 02:46:26;;;;;;;36.17;29.53;;;;;;;;;;5008151;28;20651;-65
2022/04/23 02:48:55;;;;;;;35.13;29.10;;;;;;;;;;5008015;28;20206;-66
2022/04/23 02:51:23;;;;;;;38.00;29.53;;;;;;;;;;5009649;28;20213;-66
2022/04/23 02:53:50;;;;;;;36.40;28.37;;;;;;;;;;5008165;28;20211;-65
2022/04/23 02:56:19;;;;;;;34.63;28.83;;;;;;;;;;5010559;28;20226;-65
2022/04/23 02:58:46;;;;;;;34.83;29.80;;;;;;;;;;5008895;28;20221;-66
2022/04/23 03:01:14;;;;;;;34.83;29.10;;;;;;;;;;5009969;28;20203;-65
2022/04/23 03:03:41;;;;;;;36.87;30.23;;;;;;;;;;5005178;28;20226;-66
2022/04/23 03:06:10;;;;;;;42.77;30.13;;;;;;;;;;5004057;28;20285;-64
2022/04/23 03:08:41;;;;;;;36.13;29.50;;;;;;;;;;5005834;28;20208;-65
2022/04/23 03:11:08;;;;;;;38.60;30.70;;;;;;;;;;4999693;28;20211;-66
2022/04/23 03:13:35;;;;;;;38.53;29.93;;;;;;;;;;4997202;28;20215;-66
2022/04/23 03:16:03;;;;;;;37.57;29.07;;;;;;;;;;5006357;28;20250;-65
2022/04/23 03:18:31;;;;;;;38.33;30.00;;;;;;;;;;5010784;28;20214;-66
2022/04/23 03:20:58;;;;;;;37.07;30.40;;;;;;;;;;5016775;28;20207;-65
2022/04/23 03:23:27;;;;;;;34.43;29.33;;;;;;;;;;5019836;28;20198;-65
2022/04/23 03:25:54;;;;;;;36.73;29.73;;;;;;;;;;5014047;28;20242;-65
2022/04/23 03:28:23;;;;;;;35.60;29.23;;;;;;;;;;5010938;28;20227;-66
2022/04/23 03:30:50;;;;;;;37.97;29.33;;;;;;;;;;5019439;28;20202;-63
2022/04/23 03:33:18;;;;;;;35.37;28.97;;;;;;;;;;5009534;28;20278;-65
2022/04/23 03:35:45;;;;;;;38.33;30.37;;;;;;;;;;5005255;28;20725;-67
2022/04/23 03:38:13;;;;;;;35.97;29.93;;;;;;;;;;5009291;28;20211;-64
2022/04/23 03:40:41;;;;;;;37.80;31.00;;;;;;;;;;5005368;28;20211;-63
2022/04/23 03:43:08;;;;;;;38.53;31.77;;;;;;;;;;4999500;28;20207;-65
2022/04/23 03:45:37;;;;;;;38.63;30.40;;;;;;;;;;5011138;28;20286;-64
2022/04/23 03:48:05;;;;;;;34.37;29.47;;;;;;;;;;5008736;28;20233;-65
2022/04/23 03:50:33;;;;;;;34.70;28.93;;;;;;;;;;5008296;28;20211;-66
2022/04/23 03:53:00;;;;;;;37.30;29.80;;;;;;;;;;5000295;28;20230;-65
2022/04/23 03:55:28;;;;;;;34.50;29.17;;;;;;;;;;5008644;28;20315;-66
2022/04/23 03:57:55;;;;;;;33.10;27.73;;;;;;;;;;5011594;28;20265;-65
2022/04/23 04:00:23;;;;;;;32.00;26.27;;;;;;;;;;5005292;28;20229;-65
2022/04/23 04:02:50;;;;;;;33.80;27.13;;;;;;;;;;5001210;28;20207;-66
2022/04/23 04:05:18;;;;;;;31.73;26.77;;;;;;;;;;5008981;28;20226;-64
2022/04/23 04:07:47;;;;;;;32.17;26.00;;;;;;;;;;5005596;28;20238;-65
2022/04/23 04:10:17;;;;;;;31.10;25.37;;;;;;;;;;5002817;28;20206;-65
2022/04/23 04:12:45;;;;;;;32.83;26.73;;;;;;;;;;5007118;28;20218;-66
2022/04/23 04:15:15;;;;;;;31.70;25.53;;;;;;;;;;5004718;28;20226;-65
2022/04/23 04:17:43;;;;;;;33.47;27.00;;;;;;;;;;5009822;28;21021;-65
2022/04/23 04:20:14;;;;;;;39.00;29.03;;;;;;;;;;5021956;28;20200;-66
2022/04/23 04:22:42;;;;;;;32.63;26.37;;;;;;;;;;5006368;28;20215;-65
2022/04/23 04:25:10;;;;;;;31.00;26.07;;;;;;;;;;5009148;28;20233;-64
2022/04/23 04:27:38;;;;;;;30.57;24.80;;;;;;;;;;5027053;28;20491;-65
2022/04/23 04:30:07;;;;;;;32.53;25.67;;;;;;;;;;5009991;28;20815;-64
2022/04/23 04:32:34;;;;;;;30.20;25.37;;;;;;;;;;5007792;28;21147;-67
2022/04/23 04:35:01;;;;;;;28.57;23.37;;;;;;;;;;5010333;28;20227;-66
2022/04/23 04:37:29;;;;;;;31.30;23.80;;;;;;;;;;5003485;28;20203;-65
2022/04/23 04:39:56;;;;;;;28.30;24.07;;;;;;;;;;5003959;28;20590;-65
2022/04/23 04:42:24;;;;;;;29.77;23.87;;;;;;;;;;5008639;28;20322;-66
2022/04/23 04:44:51;;;;;;;30.20;24.87;;;;;;;;;;5005014;28;20771;-64
2022/04/23 04:47:19;;;;;;;30.73;24.80;;;;;;;;;;4998627;28;20230;-64
2022/04/23 04:49:49;;;;;;;34.00;25.87;;;;;;;;;;5008263;28;20246;-65
2022/04/23 04:52:16;;;;;;;28.80;24.40;;;;;;;;;;5009978;28;20290;-65
2022/04/23 04:54:44;;;;;;;30.63;25.13;;;;;;;;;;5009325;28;20230;-65
2022/04/23 04:57:11;;;;;;;31.73;24.97;;;;;;;;;;5004470;28;20205;-64
2022/04/23 04:59:39;;;;;;;31.83;27.23;;;;;;;;;;5018411;28;20253;-64
2022/04/23 05:02:06;;;;;;;32.07;26.40;;;;;;;;;;5012619;28;20199;-65
2022/04/23 05:04:34;;;;;;;30.47;25.80;;;;;;;;;;5017246;28;20211;-62
2022/04/23 05:07:02;;;;;;;34.20;27.30;;;;;;;;;;5017570;28;20576;-65
2022/04/23 05:09:29;;;;;;;32.33;25.70;;;;;;;;;;5012710;28;20230;-64
2022/04/23 05:11:57;;;;;;;29.77;24.27;;;;;;;;;;5009457;28;20217;-64
2022/04/23 05:14:24;;;;;;;31.00;25.57;;;;;;;;;;5012746;28;20246;-64
2022/04/23 05:16:51;;;;;;;30.83;24.50;;;;;;;;;;5019656;28;20639;-64
2022/04/23 05:19:19;;;;;;;32.77;23.53;;;;;;;;;;5025674;28;20207;-64
2022/04/23 05:21:46;;;;;;;32.10;24.13;;;;;;;;;;5019112;28;20210;-65
2022/04/23 05:24:14;;;;;;;29.40;23.23;;;;;;;;;;5018749;28;20200;-65
2022/04/23 05:26:41;;;;;;;30.37;23.20;;;;;;;;;;5024623;28;20225;-64
2022/04/23 05:29:08;;;;;;;32.17;23.83;;;;;;;;;;5022875;28;20637;-64
2022/04/23 05:31:38;;;;;;;31.83;24.03;;;;;;;;;;5021639;28;20253;-65
2022/04/23 05:34:06;;;;;;;30.53;24.30;;;;;;;;;;5027687;28;20256;-65
2022/04/23 05:36:33;;;;;;;27.20;22.67;;;;;;;;;;5024808;28;20218;-64
2022/04/23 05:39:01;;;;;;;26.27;20.37;;;;;;;;;;5024690;28;20253;-64
2022/04/23 05:41:28;;;;;;;24.93;20.17;;;;;;;;;;5023739;28;20207;-65
2022/04/23 05:43:55;;;;;;;23.60;19.70;;;;;;;;;;5018886;28;20261;-64
2022/04/23 05:46:23;;;;;;;26.60;21.50;;;;;;;;;;5021322;28;20276;-64
2022/04/23 05:48:50;;;;;;;26.07;21.30;;;;;;;;;;5028257;28;20807;-65
2022/04/23 05:51:19;;;;;;;26.43;20.67;;;;;;;;;;5017013;28;20212;-64
2022/04/23 05:53:46;;;;;;;25.40;20.63;;;;;;;;;;5022517;28;20261;-64
2022/04/23 05:56:13;;;;;;;27.77;21.27;;;;;;;;;;5017381;28;20229;-64
2022/04/23 05:58:41;;;;;;;28.03;22.10;;;;;;;;;;5017494;28;20207;-63
2022/04/23 06:01:08;;;;;;;26.53;21.57;;;;;;;;;;5017812;28;20203;-64
2022/04/23 06:03:35;;;;;;;25.53;20.07;;;;;;;;;;5022066;28;20198;-64
2022/04/23 06:06:03;;;;;;;23.40;19.60;;;;;;;;;;5025862;28;20647;-65
2022/04/23 06:08:30;;;;;;;24.63;19.73;;;;;;;;;;5016012;28;20223;-64
2022/04/23 06:11:04;;;;;;;22.40;19.07;;;;;;;;;;5037259;28;20198;-65
2022/04/23 06:13:31;;;;;;;26.03;20.77;;;;;;;;;;5030072;28;20215;-64
2022/04/23 06:15:58;;;;;;;23.33;19.60;;;;;;;;;;5010741;28;20226;-64
2022/04/23 06:18:26;;;;;;;24.00;19.60;;;;;;;;;;5011806;28;20207;-64
2022/04/23 06:20:53;;;;;;;24.30;19.53;;;;;;;;;;5011569;28;20259;-64
2022/04/23 06:23:21;;;;;;;23.30;19.83;;;;;;;;;;5012068;28;20290;-64
2022/04/23 06:25:50;;;;;;;23.23;19.13;;;;;;;;;;5011573;28;20228;-64
2022/04/23 06:28:17;;;;;;;25.23;19.10;;;;;;;;;;5009601;28;20312;-65
2022/04/23 06:30:44;;;;;;;23.70;19.93;;;;;;;;;;5012452;28;20230;-64
2022/04/23 06:33:12;;;;;;;23.33;19.57;;;;;;;;;;5015165;28;20233;-65
2022/04/23 06:35:39;;;;;;;25.70;20.77;;;;;;;;;;5009533;28;20228;-63
2022/04/23 06:38:06;;;;;;;24.63;19.47;;;;;;;;;;5010011;28;20218;-63
2022/04/23 06:40:35;;;;;;;21.13;18.07;;;;;;;;;;5009632;28;20203;-64
2022/04/23 06:43:03;;;;;;;20.23;17.67;;;;;;;;;;5000891;28;20219;-64
2022/04/23 06:45:30;;;;;;;20.63;17.60;;;;;;;;;;5013976;28;20681;-64
2022/04/23 06:48:02;;;;;;;20.33;17.10;;;;;;;;;;5008620;28;20365;-64
2022/04/23 06:50:30;;;;;;;21.07;17.07;;;;;;;;;;5017092;28;20211;-64
2022/04/23 06:52:59;;;;;;;20.93;17.30;;;;;;;;;;5011809;28;20218;-64
2022/04/23 06:55:26;;;;;;;19.33;16.53;;;;;;;;;;5009407;28;20578;-63
2022/04/23 06:57:54;;;;;;;19.50;16.67;;;;;;;;;;5008919;28;20207;-65
2022/04/23 07:00:22;;;;;;;20.97;16.53;;;;;;;;;;5000888;28;20210;-64
2022/04/23 07:02:50;;;;;;;19.97;17.17;;;;;;;;;;5010274;28;20207;-65
2022/04/23 07:05:18;;;;;;;21.60;17.77;;;;;;;;;;5008399;28;20226;-65
2022/04/23 07:07:56;;;;;;;18.37;14.37;;;;;;;;;;5013937;28;20249;-64
2022/04/23 07:10:24;;;;;;;16.87;14.17;;;;;;;;;;5009948;28;20206;-65
2022/04/23 07:12:53;;;;;;;18.33;15.07;;;;;;;;;;5009042;28;20207;-64
2022/04/23 07:15:21;;;;;;;19.27;15.47;;;;;;;;;;5009471;28;20250;-64
2022/04/23 07:17:49;;;;;;;18.20;14.63;;;;;;;;;;5005162;28;20213;-65
2022/04/23 07:20:18;;;;;;;20.23;16.07;;;;;;;;;;5010133;28;20299;-64
2022/04/23 07:25:33;;;;;;;18.33;15.13;;;;;;;;;;5014779;28;20283;-64
2022/04/23 07:28:01;;;;;;;19.27;15.90;;;;;;;;;;5014555;28;20687;-64
2022/04/23 07:30:28;;;;;;;16.80;14.53;;;;;;;;;;5008164;28;20211;-64
2022/04/23 07:32:56;;;;;;;19.70;15.50;;;;;;;;;;5008265;28;20313;-64
2022/04/23 07:38:17;;;;;;;16.83;14.77;;;;;;;;;;5005678;28;20273;-64
2022/04/23 07:40:44;;;;;;;18.30;15.67;;;;;;;;;;5010907;28;20273;-65
2022/04/23 07:43:14;;;;;;;18.67;15.43;;;;;;;;;;5010976;28;20655;-64
2022/04/23 07:45:45;;;;;;;20.03;15.77;;;;;;;;;;5018090;28;20770;-64
2022/04/23 07:48:13;;;;;;;20.27;16.47;;;;;;;;;;5017575;28;20223;-64
2022/04/23 07:50:41;;;;;;;21.27;16.27;;;;;;;;;;5013967;28;20269;-64
2022/04/23 07:53:09;;;;;;;16.50;14.27;;;;;;;;;;5020624;28;20203;-64
2022/04/23 07:55:38;;;;;;;18.87;16.27;;;;;;;;;;5020017;28;21266;-64
2022/04/23 07:58:06;;;;;;;19.00;14.83;;;;;;;;;;5023244;28;20225;-64
2022/04/23 08:00:37;;;;;;;20.57;16.20;;;;;;;;;;5016379;28;20290;-63
2022/04/23 08:03:04;;;;;;;17.80;15.10;;;;;;;;;;5010248;28;20222;-65
2022/04/23 08:05:35;;;;;;;17.67;15.40;;;;;;;;;;5020453;28;20426;-64
2022/04/23 08:08:03;;;;;;;20.43;15.83;;;;;;;;;;5018825;28;20226;-64
2022/04/23 08:10:30;;;;;;;17.37;15.10;;;;;;;;;;5011920;28;20237;-64
2022/04/23 08:12:58;;;;;;;18.33;15.77;;;;;;;;;;5018867;28;20664;-65
2022/04/23 08:15:26;;;;;;;16.43;14.30;;;;;;;;;;5027097;28;20704;-64
2022/04/23 08:17:54;;;;;;;15.83;14.13;;;;;;;;;;5018108;28;20210;-64
2022/04/23 08:20:21;;;;;;;17.80;14.97;;;;;;;;;;5009007;28;20223;-65
2022/04/23 08:22:49;;;;;;;18.17;14.87;;;;;;;;;;5013524;28;20225;-65
2022/04/23 08:25:16;;;;;;;17.90;14.77;;;;;;;;;;5016895;28;20281;-63
2022/04/23 08:27:50;;;;;;;17.67;14.53;;;;;;;;;;5009150;28;20583;-65
2022/04/23 08:30:36;;;;;;;16.97;14.23;;;;;;;;;;5012890;28;20203;-64
2022/04/23 08:33:04;;;;;;;18.60;15.47;;;;;;;;;;5013516;28;20211;-65
2022/04/23 08:35:33;;;;;;;19.27;15.27;;;;;;;;;;5010111;28;20654;-65
2022/04/23 08:38:00;;;;;;;20.07;15.07;;;;;;;;;;5011560;28;20297;-66
2022/04/23 08:40:29;;;;;;;17.30;14.83;;;;;;;;;;5009954;28;20734;-66
2022/04/23 08:42:57;;;;;;;16.67;14.47;;;;;;;;;;4999786;28;20221;-65
2022/04/23 08:45:25;;;;;;;18.63;15.60;;;;;;;;;;5015246;28;20227;-64
2022/04/23 08:47:52;;;;;;;17.30;15.13;;;;;;;;;;5019070;28;20219;-63
2022/04/23 08:50:24;;;;;;;16.47;14.40;;;;;;;;;;5016734;28;20218;-64
2022/04/23 08:52:54;;;;;;;19.10;15.80;;;;;;;;;;5021145;28;20250;-65
2022/04/23 08:55:21;;;;;;;17.20;14.40;;;;;;;;;;5015310;28;20482;-63
2022/04/23 08:57:49;;;;;;;16.90;14.37;;;;;;;;;;5015513;28;20206;-64
2022/04/23 09:00:18;;;;;;;17.67;14.40;;;;;;;;;;5017337;28;20218;-64
2022/04/23 09:02:45;;;;;;;17.57;14.23;;;;;;;;;;5016219;28;20202;-65
2022/04/23 09:05:14;;;;;;;17.50;14.37;;;;;;;;;;5008837;28;20228;-66
2022/04/23 09:07:53;;;;;;;16.50;14.17;;;;;;;;;;5022245;28;20224;-65
2022/04/23 09:10:20;;;;;;;14.67;13.07;;;;;;;;;;4999057;28;20207;-64
2022/04/23 09:12:59;;;;;;;17.00;13.97;;;;;;;;;;5000760;28;20207;-64
2022/04/23 09:24:11;;;;;;;17.63;15.10;;;;;;;;;;5004907;28;20292;-68
2022/04/23 09:26:42;;;;;;;17.80;14.37;;;;;;;;;;5008758;28;20227;-66
2022/04/23 09:29:17;;;;;;;16.27;14.53;;;;;;;;;;5010016;28;20276;-64
2022/04/23 09:31:45;;;;;;;15.70;13.73;;;;;;;;;;5033423;28;20693;-64
2022/04/23 09:34:23;;;;;;;16.97;14.67;;;;;;;;;;5020557;28;20203;-66
2022/04/23 09:36:56;;;;;;;17.50;14.70;;;;;;;;;;5012145;28;20222;-66
2022/04/23 09:39:38;;;;;;;19.40;15.40;;;;;;;;;;5003377;28;20207;-64
2022/04/23 09:42:17;;;;;;;19.73;14.27;;;;;;;;;;4998691;28;20683;-65
2022/04/23 09:44:45;;;;;;;19.73;15.97;;;;;;;;;;5000999;28;20231;-65
2022/04/23 09:47:34;;;;;;;18.50;15.57;;;;;;;;;;5011102;28;20211;-65
2022/04/23 09:50:02;;;;;;;30.57;21.90;;;;;;;;;;5003247;28;20281;-65
2022/04/23 09:52:30;;;;;;;19.87;16.20;;;;;;;;;;5009367;28;20246;-64
2022/04/23 09:55:21;;;;;;;25.40;18.67;;;;;;;;;;5007834;28;20224;-65
2022/04/23 09:57:49;;;;;;;51.43;32.47;;;;;;;;;;4999138;28;20329;-65
2022/04/23 10:00:17;;;;;;;60.00;38.63;;;;;;;;;;5001522;28;20337;-64
2022/04/23 10:02:45;;;;;;;31.33;22.87;;;;;;;;;;5007107;28;20195;-65
2022/04/23 10:05:17;;;;;;;46.23;32.30;;;;;;;;;;5015279;28;20230;-65
2022/04/23 10:07:47;;;;;;;23.17;19.23;;;;;;;;;;5013390;28;20203;-65
2022/04/23 10:10:16;;;;;;;21.90;18.33;;;;;;;;;;5003524;28;20633;-63
2022/04/23 10:12:45;;;;;;;21.27;16.20;;;;;;;;;;5010888;28;20554;-68
2022/04/23 10:15:14;;;;;;;18.37;15.73;;;;;;;;;;5019108;28;20223;-67
2022/04/23 10:17:43;;;;;;;18.37;15.90;;;;;;;;;;5023311;28;20433;-66
2022/04/23 10:20:12;;;;;;;20.83;16.40;;;;;;;;;;5015061;28;20276;-67
2022/04/23 10:22:57;;;;;;;24.17;21.10;;;;;;;;;;5017810;28;20221;-65
2022/04/23 10:25:40;;;;;;;19.77;16.90;;;;;;;;;;5022534;28;20222;-65
2022/04/23 10:28:08;;;;;;;19.50;16.67;;;;;;;;;;5017851;28;20285;-65
2022/04/23 10:30:36;;;;;;;17.83;15.40;;;;;;;;;;5017643;28;20218;-67
2022/04/23 10:33:22;;;;;;;20.50;16.57;;;;;;;;;;5014759;28;20202;-65
2022/04/23 10:36:08;;;;;;;18.93;16.07;;;;;;;;;;5019380;28;20321;-65
2022/04/23 10:38:40;;;;;;;17.97;16.00;;;;;;;;;;5009127;28;20207;-65
2022/04/23 10:41:08;;;;;;;21.13;17.37;;;;;;;;;;5011177;28;20631;-64
2022/04/23 10:43:36;;;;;;;18.53;15.97;;;;;;;;;;4995433;28;20352;-63
2022/04/23 10:46:05;;;;;;;20.90;18.70;;;;;;;;;;5019770;28;20235;-65
2022/04/23 10:48:33;;;;;;;20.70;16.03;;;;;;;;;;5010412;28;20712;-65
2022/04/23 10:51:02;;;;;;;22.27;16.77;;;;;;;;;;5004867;28;20237;-65
2022/04/23 10:53:29;;;;;;;19.33;16.87;;;;;;;;;;5028233;28;20583;-65
2022/04/23 10:56:13;;;;;;;30.63;25.33;;;;;;;;;;5010917;28;20242;-65
2022/04/23 10:58:41;;;;;;;29.57;23.40;;;;;;;;;;5003314;28;20222;-63
2022/04/23 11:01:22;;;;;;;26.80;22.67;;;;;;;;;;5013423;28;20210;-65
2022/04/23 11:03:56;;;;;;;25.27;20.33;;;;;;;;;;5002742;28;20864;-65
2022/04/23 11:12:37;;;;;;;25.30;20.57;;;;;;;;;;5006857;28;20665;-65
2022/04/23 11:15:15;;;;;;;22.83;18.60;;;;;;;;;;5008274;28;20370;-65
2022/04/23 11:17:47;;;;;;;20.80;18.30;;;;;;;;;;5013470;28;20203;-66
2022/04/23 11:20:14;;;;;;;22.70;17.03;;;;;;;;;;5009175;28;20215;-65
2022/04/23 11:22:42;;;;;;;21.63;17.40;;;;;;;;;;5004507;28;20523;-65
2022/04/23 11:25:10;;;;;;;21.00;18.80;;;;;;;;;;5012520;28;20223;-64
2022/04/23 11:27:37;;;;;;;22.67;20.27;;;;;;;;;;5012312;28;20672;-66
2022/04/23 11:30:07;;;;;;;23.67;21.00;;;;;;;;;;5015416;28;20235;-65
2022/04/23 11:32:34;;;;;;;24.87;20.47;;;;;;;;;;5007095;28;20215;-66
2022/04/23 11:35:04;;;;;;;26.20;20.53;;;;;;;;;;5008787;28;20223;-65
2022/04/23 11:37:33;;;;;;;24.53;20.97;;;;;;;;;;5008611;28;20955;-64
2022/04/23 11:40:04;;;;;;;25.37;21.37;;;;;;;;;;5009510;28;20218;-65
2022/04/23 11:42:37;;;;;;;22.60;18.67;;;;;;;;;;5011665;28;20214;-66
2022/04/23 11:45:05;;;;;;;20.13;17.37;;;;;;;;;;5013063;28;20759;-65
2022/04/23 11:47:35;;;;;;;17.83;16.03;;;;;;;;;;5025686;28;20980;-66
2022/04/23 11:50:22;;;;;;;19.63;16.63;;;;;;;;;;5012087;28;20725;-66
2022/04/23 11:53:00;;;;;;;18.00;15.83;;;;;;;;;;5012341;28;20202;-65
2022/04/23 11:55:28;;;;;;;59.93;42.03;;;;;;;;;;5017489;28;20817;-66
2022/04/23 11:57:56;;;;;;;21.70;18.83;;;;;;;;;;5016431;28;20253;-65
2022/04/23 12:00:24;;;;;;;25.73;22.60;;;;;;;;;;5029285;28;20927;-65
2022/04/23 12:02:52;;;;;;;23.03;20.07;;;;;;;;;;5014675;28;20629;-66
2022/04/23 12:05:30;;;;;;;24.73;20.87;;;;;;;;;;5031497;28;20226;-66
2022/04/23 12:07:58;;;;;;;23.87;19.80;;;;;;;;;;5018191;28;20218;-64
2022/04/23 12:10:29;;;;;;;20.40;17.77;;;;;;;;;;5043278;28;20219;-63
2022/04/23 12:13:05;;;;;;;19.90;17.23;;;;;;;;;;5015513;28;20632;-66
2022/04/23 12:15:33;;;;;;;20.13;17.60;;;;;;;;;;5013339;28;20234;-65
2022/04/23 12:18:00;;;;;;;18.03;16.10;;;;;;;;;;5013522;28;20206;-67
2022/04/23 12:20:28;;;;;;;20.07;17.07;;;;;;;;;;5011844;28;21247;-66
2022/04/23 12:23:03;;;;;;;18.17;15.83;;;;;;;;;;4995064;28;20806;-65
2022/04/23 12:25:31;;;;;;;16.77;14.87;;;;;;;;;;4992708;28;20235;-67
2022/04/23 12:28:03;;;;;;;17.83;15.57;;;;;;;;;;4997114;28;20272;-64
2022/04/23 12:41:40;;;;;;;20.57;18.30;;;;;;;;;;5016447;28;20206;-65
2022/04/23 12:44:21;;;;;;;22.00;18.60;;;;;;;;;;5004854;28;20306;-66
2022/04/23 12:46:58;;;;;;;24.47;18.93;;;;;;;;;;5007303;28;20217;-66
2022/04/23 12:49:47;;;;;;;22.70;19.60;;;;;;;;;;5006476;28;20235;-66
2022/04/23 12:52:18;;;;;;;24.23;19.43;;;;;;;;;;5007334;28;20235;-65
2022/04/23 12:55:05;;;;;;;21.83;19.37;;;;;;;;;;5009411;28;20594;-67
2022/04/23 12:57:33;;;;;;;20.03;17.77;;;;;;;;;;5005614;28;20621;-67
2022/04/23 13:00:01;;;;;;;20.03;17.10;;;;;;;;;;5012363;28;20211;-66
2022/04/23 13:02:35;;;;;;;19.20;17.13;;;;;;;;;;5008959;28;20242;-64
2022/04/23 13:05:07;;;;;;;18.53;15.93;;;;;;;;;;5002559;28;20731;-64
2022/04/23 13:10:22;;;;;;;42.30;30.20;;;;;;;;;;4998132;28;20767;-66
2022/04/23 13:12:49;;;;;;;32.83;24.13;;;;;;;;;;5018172;28;20210;-65
2022/04/23 13:15:17;;;;;;;47.90;31.87;;;;;;;;;;5010806;28;20238;-65
2022/04/23 13:17:46;;;;;;;22.07;18.10;;;;;;;;;;5014096;28;20206;-66
2022/04/23 13:20:14;;;;;;;20.30;16.73;;;;;;;;;;5003789;28;20210;-64
2022/04/23 13:22:43;;;;;;;20.93;16.57;;;;;;;;;;5013390;28;20215;-65
2022/04/23 13:25:16;;;;;;;18.77;15.70;;;;;;;;;;5004164;28;20322;-67
2022/04/23 13:27:44;;;;;;;16.00;13.83;;;;;;;;;;5009270;28;20215;-65
2022/04/23 13:30:14;;;;;;;19.83;14.13;;;;;;;;;;5004278;28;21116;-65
2022/04/23 13:32:42;;;;;;;17.77;14.37;;;;;;;;;;5014334;28;20602;-65
2022/04/23 13:35:12;;;;;;;16.00;14.10;;;;;;;;;;5013938;28;20222;-64
2022/04/23 13:37:40;;;;;;;18.13;14.93;;;;;;;;;;5006131;28;20207;-64
2022/04/23 13:40:09;;;;;;;17.03;14.90;;;;;;;;;;5009748;28;20235;-65
2022/04/23 13:42:38;;;;;;;16.83;13.93;;;;;;;;;;5012168;28;20613;-66
2022/04/23 13:45:06;;;;;;;17.00;14.37;;;;;;;;;;5001945;28;20262;-65
2022/04/23 13:47:33;;;;;;;17.53;14.93;;;;;;;;;;5008994;28;20218;-65
2022/04/23 13:50:01;;;;;;;16.50;14.63;;;;;;;;;;5021616;28;20455;-65
2022/04/23 13:52:28;;;;;;;16.37;14.53;;;;;;;;;;5000539;28;20203;-66
2022/04/23 13:54:56;;;;;;;15.90;14.23;;;;;;;;;;5009212;28;20234;-65
2022/04/23 13:57:24;;;;;;;17.53;14.67;;;;;;;;;;5049586;28;20194;-66
2022/04/23 13:59:51;;;;;;;15.33;13.73;;;;;;;;;;5021007;28;20215;-65
2022/04/23 14:10:38;;;;;;;16.63;13.80;;;;;;;;;;5020221;28;20606;-66
2022/04/23 14:13:05;;;;;;;14.67;13.13;;;;;;;;;;5016134;28;20572;-66
2022/04/23 14:15:33;;;;;;;16.37;13.67;;;;;;;;;;5013742;28;20223;-66
2022/04/23 14:18:01;;;;;;;15.27;13.67;;;;;;;;;;5010667;28;20235;-66
2022/04/23 14:20:29;;;;;;;18.80;13.50;;;;;;;;;;5005330;28;20214;-65
2022/04/23 14:23:00;;;;;;;16.80;13.93;;;;;;;;;;5004380;28;20215;-65
2022/04/23 14:25:32;;;;;;;14.80;13.30;;;;;;;;;;5015078;28;20226;-65
2022/04/23 14:28:01;;;;;;;15.00;13.53;;;;;;;;;;5005528;28;20215;-64
2022/04/23 14:30:35;;;;;;;15.03;13.50;;;;;;;;;;5007669;28;20237;-64
2022/04/23 14:33:09;;;;;;;15.27;13.77;;;;;;;;;;5016955;28;20337;-63
2022/04/23 14:35:37;;;;;;;15.67;14.03;;;;;;;;;;5004961;28;20223;-65
2022/04/23 14:38:05;;;;;;;14.50;13.10;;;;;;;;;;5025475;28;20213;-66
2022/04/23 14:40:34;;;;;;;14.63;13.23;;;;;;;;;;5009768;28;20613;-64
2022/04/23 14:43:01;;;;;;;14.87;13.30;;;;;;;;;;5009173;28;20211;-64
2022/04/23 14:45:30;;;;;;;21.23;18.77;;;;;;;;;;5016510;28;20230;-65
2022/04/23 14:47:58;;;;;;;29.00;23.87;;;;;;;;;;5024978;28;20306;-66
2022/04/23 14:50:25;;;;;;;18.10;15.00;;;;;;;;;;5017321;28;20239;-66
2022/04/23 14:53:11;;;;;;;15.53;14.03;;;;;;;;;;5017402;28;20227;-66
2022/04/23 14:55:38;;;;;;;13.87;12.50;;;;;;;;;;5013797;28;20713;-65
2022/04/23 14:58:06;;;;;;;14.17;12.53;;;;;;;;;;5012908;28;20562;-66
2022/04/23 15:00:33;;;;;;;12.70;11.57;;;;;;;;;;5018528;28;20211;-65
2022/04/23 15:03:01;;;;;;;14.37;12.90;;;;;;;;;;5018660;28;20210;-65
2022/04/23 15:05:28;;;;;;;14.03;12.63;;;;;;;;;;5013814;28;20247;-65
2022/04/23 15:07:56;;;;;;;14.10;12.80;;;;;;;;;;5013613;28;20278;-65
2022/04/23 15:10:24;;;;;;;14.10;12.70;;;;;;;;;;5013347;28;20253;-64